• Join FlightAware (Why Join?)
  • Login
  • US Flag 
11:53AM EDT


 

Airport Tracker/Info


-or-


 

Live Flight TrackerFlight Track Log ✈ SWA2596 ✈ 27-Sep-2013 ✈ KSAN - KOAK

Flight Track Log - Related Links

Times and Time Zones

All times are in EDT time to prevent confusion due to time zone crossing. See the SWA2596 flight status page for this flight to view local times or setup timezone preferences in your user account.

Time Position Orientation Groundspeed Altitude Reporting Facility
EDT Latitude Longitude Course Direction KTS MPH feet Rate Location/Type
07:46PM 32.7453 -117.2256 320° Northwest 172 198 1,600  Level Los Angeles Center
07:47PM 32.7764 -117.2836 303° West 204 235 3,900 2,700 Climbing Los Angeles Center
07:48PM 32.8153 -117.3564 302° West 253 291 7,200 2,940 Climbing Los Angeles Center
07:49PM 32.8561 -117.4408 300° West 284 327 10,000 1,320 Climbing Los Angeles Center
07:50PM 32.9314 -117.5322 314° West 321 369 10,000 1,320 Level Los Angeles Center
07:52PM 33.1209 -117.7375 320° Northwest  Level FlightAware Approximate
07:52PM 33.0092 -117.5917 327° Northwest 329 379 12,800  Level Los Angeles Center
07:53PM 33.0758 -117.6756 313° West 351 404 14,700 2,220 Climbing Los Angeles Center
07:54PM 33.1442 -117.7772 309° West 384 442 17,400 2,580 Climbing Los Angeles Center
07:55PM 33.2064 -117.8886 304° West 398 458 20,100 2,400 Climbing Los Angeles Center
07:56PM 33.3086 -117.9550 332° Northwest 420 483 22,500 2,400 Climbing Los Angeles Center
07:57PM 33.4367 -118.0342 333° Northwest 430 495 25,100 2,100 Climbing Los Angeles Center
07:58PM 33.5478 -118.1011 333° Northwest 444 511 26,900 1,980 Climbing Los Angeles Center
07:59PM 33.6603 -118.1669 334° Northwest 452 520 29,300 2,220 Climbing Los Angeles Center
08:00PM 33.7775 -118.2378 333° Northwest 449 517 31,500 2,100 Climbing Los Angeles Center
08:01PM 33.8992 -118.3106 334° Northwest 449 517 33,700 1,740 Climbing Los Angeles Center
08:02PM 33.9856 -118.3631 333° Northwest 443 510 35,100 1,500 Climbing Los Angeles Center
08:03PM 34.1144 -118.4411 333° Northwest 435 501 36,900 1,560 Climbing Los Angeles Center
08:04PM 34.2372 -118.5147 334° Northwest 437 503 38,400 1,260 Climbing Los Angeles Center
08:05PM 34.3725 -118.5967 333° Northwest 432 497 39,900 660 Climbing Los Angeles Center
08:06PM 34.4783 -118.6644 332° Northwest 430 495 40,000  Climbing Los Angeles Center
08:07PM 34.5856 -118.7283 334° Northwest 431 496 40,000  Level Los Angeles Center
08:08PM 34.6917 -118.7931 333° Northwest 428 493 40,000  Level Los Angeles Center
08:09PM 34.7989 -118.8608 333° Northwest 433 498 40,000  Level Los Angeles Center
08:10PM 34.9036 -118.9625 321° Northwest 424 488 40,000  Level Los Angeles Center
08:11PM 35.0036 -119.0575 322° Northwest 425 489 40,000  Level Los Angeles Center
08:12PM 35.0958 -119.1467 322° Northwest 426 490 40,000  Level Los Angeles Center
08:13PM 35.1867 -119.2367 321° Northwest 424 488 40,000  Level Los Angeles Center
08:14PM 35.2794 -119.3250 322° Northwest 424 488 40,000  Level Los Angeles Center
08:16PM 35.3703 -119.4158 321° Northwest 425 489 40,000  Level Los Angeles Center
08:17PM 35.4603 -119.5044 321° Northwest 420 483 40,000  Level Los Angeles Center
08:18PM 35.5678 -119.6097 321° Northwest 416 479 40,000  Level Los Angeles Center
08:19PM 35.6561 -119.6994 320° Northwest 415 478 40,000  Level Los Angeles Center
08:20PM 35.7433 -119.7892 320° Northwest 412 474 40,000  Level Los Angeles Center
08:21PM 35.8322 -119.8775 321° Northwest 414 476 40,000  Level Los Angeles Center
08:21PM 35.9022 -119.9478 321° Northwest 415 478 40,000  Level Oakland Center
08:22PM 35.9900 -120.0369 321° Northwest 413 475 40,000  Level Oakland Center
08:23PM 36.0786 -120.1278 320° Northwest 415 478 40,000  Level Oakland Center
08:25PM 36.1672 -120.2181 321° Northwest 415 478 40,000  Level Oakland Center
08:26PM 36.2739 -120.3267 321° Northwest 415 478 40,000 -660 Level Oakland Center
08:27PM 36.3619 -120.4147 321° Northwest 409 471 38,700 -1,860 Descending Oakland Center
08:28PM 36.4475 -120.5053 320° Northwest 407 468 36,200 -2,700 Descending Oakland Center
08:29PM 36.5336 -120.5939 320° Northwest 405 466 33,200 -3,180 Descending Oakland Center
08:30PM 36.6231 -120.6822 322° Northwest 410 472 29,800 -2,880 Descending Oakland Center
08:31PM 36.7097 -120.7744 320° Northwest 411 473 27,300 -2,460 Descending Oakland Center
08:32PM 36.7903 -120.8681 317° Northwest 400 460 24,800 -2,640 Descending Oakland Center
08:33PM 36.8861 -120.9764 318° Northwest 392 451 21,900 -2,580 Descending Oakland Center
08:34PM 36.9619 -121.0622 318° Northwest 375 432 19,600 -2,340 Descending Oakland Center
08:35PM 37.0389 -121.1525 317° Northwest 366 421 17,200 -2,400 Descending Oakland Center
08:36PM 37.1103 -121.2350 317° Northwest 364 419 14,800 -2,340 Descending Oakland Center
08:37PM 37.1822 -121.3172 318° Northwest 356 410 12,500 -2,100 Descending Oakland Center
08:38PM 37.2511 -121.3983 317° Northwest 345 397 10,500 -1,260 Descending Oakland Center
08:39PM 37.3133 -121.4714 317° Northwest 313 360 10,000 -720 Descending Oakland Center
08:40PM 37.3706 -121.5367 318° Northwest 277 319 9,100 -1,020 Descending Oakland Center
08:40PM 37.4000 -121.5833 308° West 269 310 8,500 -1,140 Descending Northern Cal TRACON
08:41PM 37.4667 -121.6500 322° Northwest 270 311 7,400 -1,080 Descending Northern Cal TRACON
08:42PM 37.5000 -121.7333 297° West 271 312 6,400 -720 Descending Northern Cal TRACON
08:43PM 37.5167 -121.8167 284° West 256 295 6,000 -600 Descending Northern Cal TRACON
08:44PM 37.5500 -121.8833 302° West 232 267 5,200 -1,020 Descending Northern Cal TRACON
08:45PM 37.5667 -121.9667 284° West 245 282 4,000 -1,080 Descending Northern Cal TRACON
08:46PM 37.6000 -122.0333 302° West 214 246 3,100 -900 Descending Northern Cal TRACON
08:47PM 37.6167 -122.1000 288° West 187 215 2,300 -840 Descending Northern Cal TRACON
08:49PM 37.6500 -122.1500 310° West 155 178 1,400 -780 Descending Northern Cal TRACON
08:49PM 37.6833 -122.1833 322° Northwest 123 142 800 -660 Descending Northern Cal TRACON
08:50PM 37.7000 -122.2000 322° Northwest 120 138 200 -600 Descending Northern Cal TRACON
08:53PM 37.7167 -122.2167 270° West  Level FlightAware Approximate